sensor_id;sensor_type;location;lat;lon;timestamp;P1;durP1;ratioP1;P2;durP2;ratioP2
39540;SDS011;25219;52.244;21.006;2022-10-16T00:00:25;15.27;;;10.13;;
39540;SDS011;25219;52.244;21.006;2022-10-16T00:02:51;19.33;;;10.17;;
39540;SDS011;25219;52.244;21.006;2022-10-16T00:05:16;19.65;;;10.13;;
39540;SDS011;25219;52.244;21.006;2022-10-16T00:07:41;15.27;;;9.45;;
39540;SDS011;25219;52.244;21.006;2022-10-16T00:10:06;18.90;;;9.90;;
39540;SDS011;25219;52.244;21.006;2022-10-16T00:12:32;19.45;;;9.90;;
39540;SDS011;25219;52.244;21.006;2022-10-16T00:14:57;16.30;;;9.20;;
39540;SDS011;25219;52.244;21.006;2022-10-16T00:17:22;15.07;;;8.57;;
39540;SDS011;25219;52.244;21.006;2022-10-16T00:19:47;16.53;;;9.73;;
39540;SDS011;25219;52.244;21.006;2022-10-16T00:22:12;16.63;;;9.43;;
39540;SDS011;25219;52.244;21.006;2022-10-16T00:24:37;17.52;;;10.02;;
39540;SDS011;25219;52.244;21.006;2022-10-16T00:27:02;17.75;;;9.48;;
39540;SDS011;25219;52.244;21.006;2022-10-16T00:29:28;17.27;;;11.10;;
39540;SDS011;25219;52.244;21.006;2022-10-16T00:31:53;17.17;;;10.05;;
39540;SDS011;25219;52.244;21.006;2022-10-16T00:34:18;17.20;;;10.07;;
39540;SDS011;25219;52.244;21.006;2022-10-16T00:36:43;18.03;;;9.80;;
39540;SDS011;25219;52.244;21.006;2022-10-16T00:39:08;18.70;;;11.13;;
39540;SDS011;25219;52.244;21.006;2022-10-16T00:41:34;17.07;;;11.30;;
39540;SDS011;25219;52.244;21.006;2022-10-16T00:44:00;22.67;;;11.07;;
39540;SDS011;25219;52.244;21.006;2022-10-16T00:46:35;20.60;;;11.25;;
39540;SDS011;25219;52.244;21.006;2022-10-16T00:49:02;21.10;;;11.35;;
39540;SDS011;25219;52.244;21.006;2022-10-16T00:51:30;19.02;;;10.75;;
39540;SDS011;25219;52.244;21.006;2022-10-16T00:53:57;17.73;;;10.85;;
39540;SDS011;25219;52.244;21.006;2022-10-16T00:56:22;26.27;;;11.75;;
39540;SDS011;25219;52.244;21.006;2022-10-16T00:58:47;18.88;;;12.07;;
39540;SDS011;25219;52.244;21.006;2022-10-16T01:01:13;20.67;;;11.73;;
39540;SDS011;25219;52.244;21.006;2022-10-16T01:03:38;20.45;;;11.55;;
39540;SDS011;25219;52.244;21.006;2022-10-16T01:06:12;17.53;;;11.53;;
39540;SDS011;25219;52.244;21.006;2022-10-16T01:14:11;20.50;;;11.93;;
39540;SDS011;25219;52.244;21.006;2022-10-16T01:16:42;21.23;;;12.05;;
39540;SDS011;25219;52.244;21.006;2022-10-16T01:19:12;18.67;;;11.68;;
39540;SDS011;25219;52.244;21.006;2022-10-16T01:21:39;23.52;;;12.52;;
39540;SDS011;25219;52.244;21.006;2022-10-16T01:29:03;18.83;;;12.40;;
39540;SDS011;25219;52.244;21.006;2022-10-16T01:31:32;28.98;;;12.57;;
39540;SDS011;25219;52.244;21.006;2022-10-16T01:34:09;24.67;;;12.48;;
39540;SDS011;25219;52.244;21.006;2022-10-16T01:36:39;26.75;;;12.70;;
39540;SDS011;25219;52.244;21.006;2022-10-16T01:39:06;20.90;;;12.20;;
39540;SDS011;25219;52.244;21.006;2022-10-16T01:41:38;21.70;;;12.25;;
39540;SDS011;25219;52.244;21.006;2022-10-16T01:44:17;19.90;;;12.30;;
39540;SDS011;25219;52.244;21.006;2022-10-16T01:46:45;16.60;;;11.43;;
39540;SDS011;25219;52.244;21.006;2022-10-16T01:49:11;27.50;;;12.15;;
39540;SDS011;25219;52.244;21.006;2022-10-16T01:51:37;21.13;;;12.27;;
39540;SDS011;25219;52.244;21.006;2022-10-16T01:54:02;20.98;;;11.90;;
39540;SDS011;25219;52.244;21.006;2022-10-16T01:56:29;19.40;;;11.77;;
39540;SDS011;25219;52.244;21.006;2022-10-16T01:58:57;21.67;;;12.43;;
39540;SDS011;25219;52.244;21.006;2022-10-16T02:01:23;22.65;;;12.82;;
39540;SDS011;25219;52.244;21.006;2022-10-16T02:03:50;21.42;;;14.25;;
39540;SDS011;25219;52.244;21.006;2022-10-16T02:06:16;23.15;;;13.20;;
39540;SDS011;25219;52.244;21.006;2022-10-16T02:08:42;25.90;;;13.90;;
39540;SDS011;25219;52.244;21.006;2022-10-16T02:11:09;21.20;;;13.27;;
39540;SDS011;25219;52.244;21.006;2022-10-16T02:16:06;21.83;;;13.45;;
39540;SDS011;25219;52.244;21.006;2022-10-16T02:18:31;23.17;;;13.48;;
39540;SDS011;25219;52.244;21.006;2022-10-16T02:21:01;24.30;;;14.00;;
39540;SDS011;25219;52.244;21.006;2022-10-16T02:23:30;22.33;;;13.10;;
39540;SDS011;25219;52.244;21.006;2022-10-16T02:25:58;19.75;;;12.70;;
39540;SDS011;25219;52.244;21.006;2022-10-16T02:28:24;21.17;;;13.02;;
39540;SDS011;25219;52.244;21.006;2022-10-16T02:30:52;21.23;;;13.45;;
39540;SDS011;25219;52.244;21.006;2022-10-16T02:33:20;27.33;;;13.75;;
39540;SDS011;25219;52.244;21.006;2022-10-16T02:35:47;26.05;;;14.20;;
39540;SDS011;25219;52.244;21.006;2022-10-16T02:38:13;23.40;;;14.35;;
39540;SDS011;25219;52.244;21.006;2022-10-16T02:40:39;25.23;;;14.23;;
39540;SDS011;25219;52.244;21.006;2022-10-16T02:43:04;25.43;;;14.53;;
39540;SDS011;25219;52.244;21.006;2022-10-16T02:45:30;23.20;;;13.18;;
39540;SDS011;25219;52.244;21.006;2022-10-16T02:47:55;28.00;;;14.48;;
39540;SDS011;25219;52.244;21.006;2022-10-16T02:50:20;26.10;;;14.67;;
39540;SDS011;25219;52.244;21.006;2022-10-16T02:52:45;20.93;;;14.00;;
39540;SDS011;25219;52.244;21.006;2022-10-16T02:55:11;29.20;;;13.97;;
39540;SDS011;25219;52.244;21.006;2022-10-16T02:57:36;26.27;;;14.50;;
39540;SDS011;25219;52.244;21.006;2022-10-16T03:00:02;25.02;;;15.27;;
39540;SDS011;25219;52.244;21.006;2022-10-16T03:02:28;23.20;;;14.82;;
39540;SDS011;25219;52.244;21.006;2022-10-16T03:04:53;23.93;;;14.40;;
39540;SDS011;25219;52.244;21.006;2022-10-16T03:07:18;25.48;;;14.75;;
39540;SDS011;25219;52.244;21.006;2022-10-16T03:09:43;22.80;;;14.98;;
39540;SDS011;25219;52.244;21.006;2022-10-16T03:12:09;25.85;;;15.45;;
39540;SDS011;25219;52.244;21.006;2022-10-16T03:14:34;22.83;;;14.55;;
39540;SDS011;25219;52.244;21.006;2022-10-16T03:16:59;23.10;;;14.15;;
39540;SDS011;25219;52.244;21.006;2022-10-16T03:19:24;23.60;;;14.75;;
39540;SDS011;25219;52.244;21.006;2022-10-16T03:21:49;21.80;;;13.57;;
39540;SDS011;25219;52.244;21.006;2022-10-16T03:24:14;25.27;;;14.33;;
39540;SDS011;25219;52.244;21.006;2022-10-16T03:26:40;25.40;;;13.50;;
39540;SDS011;25219;52.244;21.006;2022-10-16T03:29:05;23.00;;;13.57;;
39540;SDS011;25219;52.244;21.006;2022-10-16T03:31:31;25.63;;;13.32;;
39540;SDS011;25219;52.244;21.006;2022-10-16T03:33:56;24.35;;;14.02;;
39540;SDS011;25219;52.244;21.006;2022-10-16T03:36:22;26.03;;;15.40;;
39540;SDS011;25219;52.244;21.006;2022-10-16T03:38:47;23.57;;;13.23;;
39540;SDS011;25219;52.244;21.006;2022-10-16T03:41:12;24.90;;;14.30;;
39540;SDS011;25219;52.244;21.006;2022-10-16T03:43:37;21.37;;;13.10;;
39540;SDS011;25219;52.244;21.006;2022-10-16T03:46:02;23.13;;;14.33;;
39540;SDS011;25219;52.244;21.006;2022-10-16T03:48:28;21.13;;;12.83;;
39540;SDS011;25219;52.244;21.006;2022-10-16T03:50:53;21.33;;;13.88;;
39540;SDS011;25219;52.244;21.006;2022-10-16T03:53:19;28.85;;;13.13;;
39540;SDS011;25219;52.244;21.006;2022-10-16T03:55:44;25.20;;;13.53;;
39540;SDS011;25219;52.244;21.006;2022-10-16T03:58:10;25.03;;;13.03;;
39540;SDS011;25219;52.244;21.006;2022-10-16T04:00:35;22.77;;;13.48;;
39540;SDS011;25219;52.244;21.006;2022-10-16T04:03:01;24.10;;;12.95;;
39540;SDS011;25219;52.244;21.006;2022-10-16T04:05:26;21.87;;;13.10;;
39540;SDS011;25219;52.244;21.006;2022-10-16T04:07:51;20.53;;;13.17;;
39540;SDS011;25219;52.244;21.006;2022-10-16T04:10:16;25.67;;;13.55;;
39540;SDS011;25219;52.244;21.006;2022-10-16T04:12:41;21.13;;;13.75;;
39540;SDS011;25219;52.244;21.006;2022-10-16T04:15:07;23.47;;;13.70;;
39540;SDS011;25219;52.244;21.006;2022-10-16T04:17:32;28.67;;;13.77;;
39540;SDS011;25219;52.244;21.006;2022-10-16T04:19:57;24.33;;;13.57;;
39540;SDS011;25219;52.244;21.006;2022-10-16T04:22:22;19.67;;;12.33;;
39540;SDS011;25219;52.244;21.006;2022-10-16T04:24:47;21.33;;;12.90;;
39540;SDS011;25219;52.244;21.006;2022-10-16T04:27:13;21.03;;;12.83;;
39540;SDS011;25219;52.244;21.006;2022-10-16T04:29:38;23.17;;;13.33;;
39540;SDS011;25219;52.244;21.006;2022-10-16T04:32:03;24.63;;;13.05;;
39540;SDS011;25219;52.244;21.006;2022-10-16T04:34:28;22.83;;;12.77;;
39540;SDS011;25219;52.244;21.006;2022-10-16T04:36:53;21.60;;;13.03;;
39540;SDS011;25219;52.244;21.006;2022-10-16T04:39:18;22.23;;;12.70;;
39540;SDS011;25219;52.244;21.006;2022-10-16T04:41:44;19.97;;;12.80;;
39540;SDS011;25219;52.244;21.006;2022-10-16T04:44:09;23.40;;;12.85;;
39540;SDS011;25219;52.244;21.006;2022-10-16T04:46:34;19.17;;;12.03;;
39540;SDS011;25219;52.244;21.006;2022-10-16T04:48:59;23.30;;;13.23;;
39540;SDS011;25219;52.244;21.006;2022-10-16T04:51:24;24.35;;;14.10;;
39540;SDS011;25219;52.244;21.006;2022-10-16T04:53:50;21.73;;;12.98;;
39540;SDS011;25219;52.244;21.006;2022-10-16T04:56:16;20.23;;;12.52;;
39540;SDS011;25219;52.244;21.006;2022-10-16T04:58:41;24.23;;;12.80;;
39540;SDS011;25219;52.244;21.006;2022-10-16T05:01:06;19.00;;;12.30;;
39540;SDS011;25219;52.244;21.006;2022-10-16T05:03:31;24.77;;;13.13;;
39540;SDS011;25219;52.244;21.006;2022-10-16T05:05:56;21.65;;;13.07;;
39540;SDS011;25219;52.244;21.006;2022-10-16T05:08:22;19.27;;;12.53;;
39540;SDS011;25219;52.244;21.006;2022-10-16T05:10:47;20.83;;;11.70;;
39540;SDS011;25219;52.244;21.006;2022-10-16T05:13:12;19.10;;;13.05;;
39540;SDS011;25219;52.244;21.006;2022-10-16T05:15:37;19.17;;;12.32;;
39540;SDS011;25219;52.244;21.006;2022-10-16T05:18:02;16.87;;;11.97;;
39540;SDS011;25219;52.244;21.006;2022-10-16T05:20:28;20.83;;;12.30;;
39540;SDS011;25219;52.244;21.006;2022-10-16T05:22:53;21.67;;;12.40;;
39540;SDS011;25219;52.244;21.006;2022-10-16T05:25:18;28.57;;;14.03;;
39540;SDS011;25219;52.244;21.006;2022-10-16T05:27:43;20.33;;;11.87;;
39540;SDS011;25219;52.244;21.006;2022-10-16T05:30:11;18.77;;;11.93;;
39540;SDS011;25219;52.244;21.006;2022-10-16T05:32:36;20.57;;;12.07;;
39540;SDS011;25219;52.244;21.006;2022-10-16T05:35:02;17.93;;;11.80;;
39540;SDS011;25219;52.244;21.006;2022-10-16T05:37:27;23.53;;;13.40;;
39540;SDS011;25219;52.244;21.006;2022-10-16T05:39:52;22.10;;;12.07;;
39540;SDS011;25219;52.244;21.006;2022-10-16T05:42:17;18.63;;;11.93;;
39540;SDS011;25219;52.244;21.006;2022-10-16T05:44:42;18.17;;;11.87;;
39540;SDS011;25219;52.244;21.006;2022-10-16T05:47:07;20.50;;;13.32;;
39540;SDS011;25219;52.244;21.006;2022-10-16T05:49:33;21.93;;;12.90;;
39540;SDS011;25219;52.244;21.006;2022-10-16T05:51:58;20.02;;;12.85;;
39540;SDS011;25219;52.244;21.006;2022-10-16T05:54:23;26.10;;;12.80;;
39540;SDS011;25219;52.244;21.006;2022-10-16T05:56:48;19.67;;;12.07;;
39540;SDS011;25219;52.244;21.006;2022-10-16T05:59:13;21.38;;;12.65;;
39540;SDS011;25219;52.244;21.006;2022-10-16T06:01:39;19.45;;;11.40;;
39540;SDS011;25219;52.244;21.006;2022-10-16T06:04:04;21.50;;;12.40;;
39540;SDS011;25219;52.244;21.006;2022-10-16T06:06:29;21.23;;;12.13;;
39540;SDS011;25219;52.244;21.006;2022-10-16T06:08:56;21.90;;;13.02;;
39540;SDS011;25219;52.244;21.006;2022-10-16T06:11:25;26.23;;;12.95;;
39540;SDS011;25219;52.244;21.006;2022-10-16T06:13:51;19.70;;;12.20;;
39540;SDS011;25219;52.244;21.006;2022-10-16T06:16:17;19.90;;;12.63;;
39540;SDS011;25219;52.244;21.006;2022-10-16T06:18:42;23.87;;;13.33;;
39540;SDS011;25219;52.244;21.006;2022-10-16T06:21:08;29.35;;;12.32;;
39540;SDS011;25219;52.244;21.006;2022-10-16T06:23:34;24.52;;;11.52;;
39540;SDS011;25219;52.244;21.006;2022-10-16T06:26:06;20.38;;;12.13;;
39540;SDS011;25219;52.244;21.006;2022-10-16T06:28:31;19.45;;;11.50;;
39540;SDS011;25219;52.244;21.006;2022-10-16T06:31:01;17.95;;;12.05;;
39540;SDS011;25219;52.244;21.006;2022-10-16T06:33:26;22.15;;;11.43;;
39540;SDS011;25219;52.244;21.006;2022-10-16T06:35:51;17.67;;;11.83;;
39540;SDS011;25219;52.244;21.006;2022-10-16T06:38:16;21.52;;;11.82;;
39540;SDS011;25219;52.244;21.006;2022-10-16T06:40:42;18.90;;;11.60;;
39540;SDS011;25219;52.244;21.006;2022-10-16T06:43:07;18.13;;;12.17;;
39540;SDS011;25219;52.244;21.006;2022-10-16T06:45:32;22.10;;;12.93;;
39540;SDS011;25219;52.244;21.006;2022-10-16T06:47:57;17.53;;;12.27;;
39540;SDS011;25219;52.244;21.006;2022-10-16T06:50:22;19.17;;;12.07;;
39540;SDS011;25219;52.244;21.006;2022-10-16T06:52:48;18.83;;;12.18;;
39540;SDS011;25219;52.244;21.006;2022-10-16T06:55:13;19.60;;;11.83;;
39540;SDS011;25219;52.244;21.006;2022-10-16T06:57:39;17.98;;;11.30;;
39540;SDS011;25219;52.244;21.006;2022-10-16T07:00:05;20.88;;;12.32;;
39540;SDS011;25219;52.244;21.006;2022-10-16T07:02:30;19.88;;;11.68;;
39540;SDS011;25219;52.244;21.006;2022-10-16T07:04:55;21.33;;;11.50;;
39540;SDS011;25219;52.244;21.006;2022-10-16T07:07:21;19.17;;;10.98;;
39540;SDS011;25219;52.244;21.006;2022-10-16T07:09:49;16.83;;;11.18;;
39540;SDS011;25219;52.244;21.006;2022-10-16T07:12:14;16.98;;;10.85;;
39540;SDS011;25219;52.244;21.006;2022-10-16T07:14:39;16.47;;;11.67;;
39540;SDS011;25219;52.244;21.006;2022-10-16T07:17:05;16.57;;;10.50;;
39540;SDS011;25219;52.244;21.006;2022-10-16T07:19:30;20.40;;;11.80;;
39540;SDS011;25219;52.244;21.006;2022-10-16T07:21:55;19.03;;;12.13;;
39540;SDS011;25219;52.244;21.006;2022-10-16T07:24:21;19.52;;;11.65;;
39540;SDS011;25219;52.244;21.006;2022-10-16T07:26:47;17.93;;;11.40;;
39540;SDS011;25219;52.244;21.006;2022-10-16T07:29:13;16.45;;;11.40;;
39540;SDS011;25219;52.244;21.006;2022-10-16T07:31:38;17.55;;;11.77;;
39540;SDS011;25219;52.244;21.006;2022-10-16T07:34:04;21.95;;;11.45;;
39540;SDS011;25219;52.244;21.006;2022-10-16T07:36:29;17.23;;;11.30;;
39540;SDS011;25219;52.244;21.006;2022-10-16T07:38:54;18.37;;;11.17;;
39540;SDS011;25219;52.244;21.006;2022-10-16T07:41:19;21.77;;;12.50;;
39540;SDS011;25219;52.244;21.006;2022-10-16T07:43:45;25.37;;;11.90;;
39540;SDS011;25219;52.244;21.006;2022-10-16T07:46:11;18.35;;;12.18;;
39540;SDS011;25219;52.244;21.006;2022-10-16T07:48:36;22.57;;;11.33;;
39540;SDS011;25219;52.244;21.006;2022-10-16T07:51:02;17.53;;;11.83;;
39540;SDS011;25219;52.244;21.006;2022-10-16T07:53:28;18.00;;;11.93;;
39540;SDS011;25219;52.244;21.006;2022-10-16T07:55:59;19.33;;;11.27;;
39540;SDS011;25219;52.244;21.006;2022-10-16T07:58:25;18.60;;;12.13;;
39540;SDS011;25219;52.244;21.006;2022-10-16T08:00:50;26.08;;;11.55;;
39540;SDS011;25219;52.244;21.006;2022-10-16T08:03:15;17.20;;;11.02;;
39540;SDS011;25219;52.244;21.006;2022-10-16T08:05:40;15.30;;;10.90;;
39540;SDS011;25219;52.244;21.006;2022-10-16T08:08:06;16.13;;;9.98;;
39540;SDS011;25219;52.244;21.006;2022-10-16T08:10:31;18.33;;;11.23;;
39540;SDS011;25219;52.244;21.006;2022-10-16T08:12:56;13.85;;;10.00;;
39540;SDS011;25219;52.244;21.006;2022-10-16T08:15:22;15.18;;;10.45;;
39540;SDS011;25219;52.244;21.006;2022-10-16T08:17:54;17.77;;;10.70;;
39540;SDS011;25219;52.244;21.006;2022-10-16T08:20:19;17.92;;;10.52;;
39540;SDS011;25219;52.244;21.006;2022-10-16T08:22:44;16.05;;;10.20;;
39540;SDS011;25219;52.244;21.006;2022-10-16T08:25:09;16.02;;;10.00;;
39540;SDS011;25219;52.244;21.006;2022-10-16T08:27:34;15.93;;;11.38;;
39540;SDS011;25219;52.244;21.006;2022-10-16T08:29:59;17.00;;;9.60;;
39540;SDS011;25219;52.244;21.006;2022-10-16T08:32:25;13.27;;;10.15;;
39540;SDS011;25219;52.244;21.006;2022-10-16T08:34:50;15.83;;;9.70;;
39540;SDS011;25219;52.244;21.006;2022-10-16T08:37:15;20.03;;;10.90;;
39540;SDS011;25219;52.244;21.006;2022-10-16T08:39:40;18.07;;;10.80;;
39540;SDS011;25219;52.244;21.006;2022-10-16T08:47:39;13.63;;;9.20;;
39540;SDS011;25219;52.244;21.006;2022-10-16T08:50:11;16.35;;;10.82;;
39540;SDS011;25219;52.244;21.006;2022-10-16T08:52:39;14.73;;;9.80;;
39540;SDS011;25219;52.244;21.006;2022-10-16T08:55:05;16.50;;;10.55;;
39540;SDS011;25219;52.244;21.006;2022-10-16T08:57:30;16.42;;;10.18;;
39540;SDS011;25219;52.244;21.006;2022-10-16T08:59:57;12.95;;;9.63;;
39540;SDS011;25219;52.244;21.006;2022-10-16T09:02:37;17.88;;;10.20;;
39540;SDS011;25219;52.244;21.006;2022-10-16T09:10:38;15.90;;;9.25;;
39540;SDS011;25219;52.244;21.006;2022-10-16T09:13:53;14.82;;;9.95;;
39540;SDS011;25219;52.244;21.006;2022-10-16T09:15:58;17.70;;;9.25;;
39540;SDS011;25219;52.244;21.006;2022-10-16T09:18:26;19.15;;;9.70;;
39540;SDS011;25219;52.244;21.006;2022-10-16T09:23:37;18.17;;;9.35;;
39540;SDS011;25219;52.244;21.006;2022-10-16T09:26:03;13.02;;;9.18;;
39540;SDS011;25219;52.244;21.006;2022-10-16T09:28:30;16.05;;;9.90;;
39540;SDS011;25219;52.244;21.006;2022-10-16T09:30:55;14.03;;;9.13;;
39540;SDS011;25219;52.244;21.006;2022-10-16T09:33:22;12.45;;;8.80;;
39540;SDS011;25219;52.244;21.006;2022-10-16T09:35:52;17.92;;;9.35;;
39540;SDS011;25219;52.244;21.006;2022-10-16T09:38:36;17.00;;;9.57;;
39540;SDS011;25219;52.244;21.006;2022-10-16T09:41:02;15.20;;;9.52;;
39540;SDS011;25219;52.244;21.006;2022-10-16T09:43:31;14.73;;;9.38;;
39540;SDS011;25219;52.244;21.006;2022-10-16T09:46:00;14.63;;;9.30;;
39540;SDS011;25219;52.244;21.006;2022-10-16T09:48:31;15.82;;;8.63;;
39540;SDS011;25219;52.244;21.006;2022-10-16T09:50:59;13.35;;;9.20;;
39540;SDS011;25219;52.244;21.006;2022-10-16T09:53:26;12.80;;;8.48;;
39540;SDS011;25219;52.244;21.006;2022-10-16T09:55:52;16.27;;;9.25;;
39540;SDS011;25219;52.244;21.006;2022-10-16T09:58:20;15.00;;;9.32;;
39540;SDS011;25219;52.244;21.006;2022-10-16T10:00:49;13.38;;;8.98;;
39540;SDS011;25219;52.244;21.006;2022-10-16T10:03:22;14.05;;;9.52;;
39540;SDS011;25219;52.244;21.006;2022-10-16T10:05:55;12.35;;;8.85;;
39540;SDS011;25219;52.244;21.006;2022-10-16T10:08:20;13.67;;;8.77;;
39540;SDS011;25219;52.244;21.006;2022-10-16T10:10:45;12.67;;;9.37;;
39540;SDS011;25219;52.244;21.006;2022-10-16T10:13:19;19.05;;;9.55;;
39540;SDS011;25219;52.244;21.006;2022-10-16T10:15:45;16.25;;;9.15;;
39540;SDS011;25219;52.244;21.006;2022-10-16T10:18:17;14.18;;;9.32;;
39540;SDS011;25219;52.244;21.006;2022-10-16T10:20:43;19.70;;;10.20;;
39540;SDS011;25219;52.244;21.006;2022-10-16T10:23:21;12.43;;;9.00;;
39540;SDS011;25219;52.244;21.006;2022-10-16T10:25:54;13.68;;;8.75;;
39540;SDS011;25219;52.244;21.006;2022-10-16T10:28:29;13.27;;;8.40;;
39540;SDS011;25219;52.244;21.006;2022-10-16T10:31:03;13.65;;;9.05;;
39540;SDS011;25219;52.244;21.006;2022-10-16T10:38:27;16.45;;;8.25;;
39540;SDS011;25219;52.244;21.006;2022-10-16T10:46:36;13.48;;;8.05;;
39540;SDS011;25219;52.244;21.006;2022-10-16T10:51:54;15.43;;;8.18;;
39540;SDS011;25219;52.244;21.006;2022-10-16T10:54:35;12.77;;;8.55;;
39540;SDS011;25219;52.244;21.006;2022-10-16T10:57:09;13.75;;;9.27;;
39540;SDS011;25219;52.244;21.006;2022-10-16T11:07:14;14.73;;;9.13;;
39540;SDS011;25219;52.244;21.006;2022-10-16T11:09:41;14.90;;;9.05;;
39540;SDS011;25219;52.244;21.006;2022-10-16T11:12:27;12.95;;;8.60;;
39540;SDS011;25219;52.244;21.006;2022-10-16T11:14:56;14.23;;;8.40;;
39540;SDS011;25219;52.244;21.006;2022-10-16T11:17:25;13.52;;;8.68;;
39540;SDS011;25219;52.244;21.006;2022-10-16T11:19:56;12.68;;;8.82;;
39540;SDS011;25219;52.244;21.006;2022-10-16T11:24:53;13.73;;;8.02;;
39540;SDS011;25219;52.244;21.006;2022-10-16T11:27:21;12.25;;;8.10;;
39540;SDS011;25219;52.244;21.006;2022-10-16T11:32:20;13.18;;;8.75;;
39540;SDS011;25219;52.244;21.006;2022-10-16T11:34:52;14.48;;;8.43;;
39540;SDS011;25219;52.244;21.006;2022-10-16T11:37:19;15.10;;;8.95;;
39540;SDS011;25219;52.244;21.006;2022-10-16T11:39:46;13.00;;;8.77;;
39540;SDS011;25219;52.244;21.006;2022-10-16T11:42:30;12.20;;;8.02;;
39540;SDS011;25219;52.244;21.006;2022-10-16T11:49:58;12.20;;;7.82;;
39540;SDS011;25219;52.244;21.006;2022-10-16T11:52:33;14.00;;;8.45;;
39540;SDS011;25219;52.244;21.006;2022-10-16T11:57:49;11.85;;;7.88;;
39540;SDS011;25219;52.244;21.006;2022-10-16T12:08:03;13.50;;;7.88;;
39540;SDS011;25219;52.244;21.006;2022-10-16T12:10:31;10.15;;;8.10;;
39540;SDS011;25219;52.244;21.006;2022-10-16T12:12:57;15.40;;;8.15;;
39540;SDS011;25219;52.244;21.006;2022-10-16T12:15:29;11.43;;;8.70;;
39540;SDS011;25219;52.244;21.006;2022-10-16T12:17:55;12.85;;;8.02;;
39540;SDS011;25219;52.244;21.006;2022-10-16T12:20:31;12.25;;;7.40;;
39540;SDS011;25219;52.244;21.006;2022-10-16T12:23:06;16.75;;;7.85;;
39540;SDS011;25219;52.244;21.006;2022-10-16T12:25:39;11.70;;;8.27;;
39540;SDS011;25219;52.244;21.006;2022-10-16T12:28:18;20.60;;;7.85;;
39540;SDS011;25219;52.244;21.006;2022-10-16T12:30:51;13.00;;;7.60;;
39540;SDS011;25219;52.244;21.006;2022-10-16T12:35:45;17.40;;;7.47;;
39540;SDS011;25219;52.244;21.006;2022-10-16T12:38:21;12.95;;;8.48;;
39540;SDS011;25219;52.244;21.006;2022-10-16T12:40:53;14.93;;;7.70;;
39540;SDS011;25219;52.244;21.006;2022-10-16T12:45:45;9.48;;;6.53;;
39540;SDS011;25219;52.244;21.006;2022-10-16T12:48:18;13.73;;;7.95;;
39540;SDS011;25219;52.244;21.006;2022-10-16T12:50:44;11.63;;;7.38;;
39540;SDS011;25219;52.244;21.006;2022-10-16T12:53:22;12.53;;;9.00;;
39540;SDS011;25219;52.244;21.006;2022-10-16T13:01:07;12.18;;;8.45;;
39540;SDS011;25219;52.244;21.006;2022-10-16T13:16:57;11.70;;;8.00;;
39540;SDS011;25219;52.244;21.006;2022-10-16T13:19:29;15.98;;;7.75;;
39540;SDS011;25219;52.244;21.006;2022-10-16T13:22:01;12.95;;;8.30;;
39540;SDS011;25219;52.244;21.006;2022-10-16T13:29:24;17.98;;;8.43;;
39540;SDS011;25219;52.244;21.006;2022-10-16T13:31:54;11.57;;;8.55;;
39540;SDS011;25219;52.244;21.006;2022-10-16T13:34:20;15.50;;;8.50;;
39540;SDS011;25219;52.244;21.006;2022-10-16T13:36:50;11.88;;;7.95;;
39540;SDS011;25219;52.244;21.006;2022-10-16T13:41:57;22.05;;;12.10;;
39540;SDS011;25219;52.244;21.006;2022-10-16T13:44:22;19.42;;;7.70;;
39540;SDS011;25219;52.244;21.006;2022-10-16T13:46:57;12.37;;;7.60;;
39540;SDS011;25219;52.244;21.006;2022-10-16T13:49:22;13.85;;;8.77;;
39540;SDS011;25219;52.244;21.006;2022-10-16T13:51:56;12.50;;;8.47;;
39540;SDS011;25219;52.244;21.006;2022-10-16T13:54:23;12.32;;;8.00;;
39540;SDS011;25219;52.244;21.006;2022-10-16T13:56:48;15.23;;;8.30;;
39540;SDS011;25219;52.244;21.006;2022-10-16T13:59:24;10.47;;;7.07;;
39540;SDS011;25219;52.244;21.006;2022-10-16T14:01:49;13.10;;;7.82;;
39540;SDS011;25219;52.244;21.006;2022-10-16T14:04:15;16.75;;;10.50;;
39540;SDS011;25219;52.244;21.006;2022-10-16T14:06:42;11.85;;;7.40;;
39540;SDS011;25219;52.244;21.006;2022-10-16T14:09:24;12.10;;;7.10;;
39540;SDS011;25219;52.244;21.006;2022-10-16T14:11:53;9.55;;;6.13;;
39540;SDS011;25219;52.244;21.006;2022-10-16T14:14:19;12.63;;;6.53;;
39540;SDS011;25219;52.244;21.006;2022-10-16T14:16:44;13.20;;;7.70;;
39540;SDS011;25219;52.244;21.006;2022-10-16T14:19:29;13.55;;;7.07;;
39540;SDS011;25219;52.244;21.006;2022-10-16T14:21:55;9.02;;;6.85;;
39540;SDS011;25219;52.244;21.006;2022-10-16T14:26:49;11.30;;;8.10;;
39540;SDS011;25219;52.244;21.006;2022-10-16T14:29:15;10.18;;;7.88;;
39540;SDS011;25219;52.244;21.006;2022-10-16T14:31:42;10.95;;;7.63;;
39540;SDS011;25219;52.244;21.006;2022-10-16T14:36:52;9.85;;;7.75;;
39540;SDS011;25219;52.244;21.006;2022-10-16T14:39:18;12.48;;;7.25;;
39540;SDS011;25219;52.244;21.006;2022-10-16T14:41:46;13.55;;;8.38;;
39540;SDS011;25219;52.244;21.006;2022-10-16T14:44:12;11.07;;;7.38;;
39540;SDS011;25219;52.244;21.006;2022-10-16T14:46:38;11.48;;;7.63;;
39540;SDS011;25219;52.244;21.006;2022-10-16T14:51:29;11.40;;;7.88;;
39540;SDS011;25219;52.244;21.006;2022-10-16T14:53:55;12.30;;;7.97;;
39540;SDS011;25219;52.244;21.006;2022-10-16T14:56:21;14.93;;;7.83;;
39540;SDS011;25219;52.244;21.006;2022-10-16T14:58:47;9.77;;;7.57;;
39540;SDS011;25219;52.244;21.006;2022-10-16T15:01:12;10.30;;;7.35;;
39540;SDS011;25219;52.244;21.006;2022-10-16T15:03:38;10.82;;;7.78;;
39540;SDS011;25219;52.244;21.006;2022-10-16T15:06:03;11.00;;;7.55;;
39540;SDS011;25219;52.244;21.006;2022-10-16T15:08:28;11.87;;;7.97;;
39540;SDS011;25219;52.244;21.006;2022-10-16T15:10:53;13.05;;;8.48;;
39540;SDS011;25219;52.244;21.006;2022-10-16T15:13:18;12.93;;;8.87;;
39540;SDS011;25219;52.244;21.006;2022-10-16T15:15:44;14.03;;;7.83;;
39540;SDS011;25219;52.244;21.006;2022-10-16T15:18:10;13.20;;;7.32;;
39540;SDS011;25219;52.244;21.006;2022-10-16T15:20:36;13.37;;;8.23;;
39540;SDS011;25219;52.244;21.006;2022-10-16T15:23:05;14.93;;;9.00;;
39540;SDS011;25219;52.244;21.006;2022-10-16T15:25:33;20.92;;;8.40;;
39540;SDS011;25219;52.244;21.006;2022-10-16T15:27:59;14.40;;;8.48;;
39540;SDS011;25219;52.244;21.006;2022-10-16T15:30:25;14.88;;;8.75;;
39540;SDS011;25219;52.244;21.006;2022-10-16T15:32:50;11.37;;;8.10;;
39540;SDS011;25219;52.244;21.006;2022-10-16T15:35:15;14.57;;;8.77;;
39540;SDS011;25219;52.244;21.006;2022-10-16T15:37:40;16.70;;;8.43;;
39540;SDS011;25219;52.244;21.006;2022-10-16T15:40:05;11.52;;;8.05;;
39540;SDS011;25219;52.244;21.006;2022-10-16T15:42:31;14.18;;;8.50;;
39540;SDS011;25219;52.244;21.006;2022-10-16T15:44:56;13.68;;;8.00;;
39540;SDS011;25219;52.244;21.006;2022-10-16T15:47:21;13.87;;;7.83;;
39540;SDS011;25219;52.244;21.006;2022-10-16T15:49:46;12.13;;;8.47;;
39540;SDS011;25219;52.244;21.006;2022-10-16T15:52:11;12.68;;;8.25;;
39540;SDS011;25219;52.244;21.006;2022-10-16T15:54:36;19.73;;;8.20;;
39540;SDS011;25219;52.244;21.006;2022-10-16T15:57:02;12.00;;;8.23;;
39540;SDS011;25219;52.244;21.006;2022-10-16T15:59:27;12.67;;;8.67;;